Time;durP1;ratioP1;P1;durP2;ratioP2;P2;SDS_P1;SDS_P2;PMS_P1;PMS_P2;Temp;Humidity;BMP_temperature;BMP_pressure;BME280_temperature;BME280_humidity;BME280_pressure;Samples;Min_cycle;Max_cycle;Signal;HPM_P1;HPM_P2
2021/12/19 00:02:00;;;;;;;22.00;9.00;;;3.20;99.90;;;;;;5112326;28;20400;-68
2021/12/19 00:04:36;;;;;;;23.43;8.70;;;3.20;99.90;;;;;;5111934;28;20466;-68
2021/12/19 00:09:47;;;;;;;22.63;9.03;;;3.30;99.90;;;;;;5079837;28;20043;-67
2021/12/19 00:12:14;;;;;;;20.73;8.37;;;3.30;99.90;;;;;;5111745;28;20104;-67
2021/12/19 00:14:41;;;;;;;24.10;8.23;;;3.30;99.90;;;;;;5111138;28;20096;-67
2021/12/19 00:17:08;;;;;;;23.53;9.13;;;3.30;99.90;;;;;;5111425;28;20104;-68
2021/12/19 00:19:36;;;;;;;20.80;8.47;;;3.30;99.90;;;;;;5111421;28;20043;-67
2021/12/19 00:22:04;;;;;;;19.77;7.67;;;3.30;99.90;;;;;;5111348;28;20047;-68
2021/12/19 00:24:30;;;;;;;21.60;8.57;;;3.40;99.90;;;;;;5111048;28;20074;-67
2021/12/19 00:26:57;;;;;;;23.20;8.80;;;3.30;99.90;;;;;;5110784;28;20044;-67
2021/12/19 00:29:25;;;;;;;20.03;8.43;;;3.30;99.90;;;;;;5111216;28;20101;-68
2021/12/19 00:31:52;;;;;;;22.93;8.60;;;3.30;99.90;;;;;;5111314;28;20051;-67
2021/12/19 00:34:19;;;;;;;23.60;8.53;;;3.40;99.90;;;;;;5111454;28;20058;-68
2021/12/19 00:36:47;;;;;;;20.30;8.57;;;3.40;99.90;;;;;;5110723;28;20077;-68
2021/12/19 00:39:14;;;;;;;18.17;8.00;;;3.40;99.90;;;;;;5111345;28;20507;-67
2021/12/19 00:41:41;;;;;;;22.30;8.60;;;3.40;99.90;;;;;;5111298;28;20051;-67
2021/12/19 00:44:10;;;;;;;23.50;9.23;;;3.40;99.90;;;;;;5111824;28;20079;-68
2021/12/19 00:46:47;;;;;;;20.47;8.17;;;3.40;99.90;;;;;;5110931;28;20054;-68
2021/12/19 00:49:14;;;;;;;22.48;8.48;;;3.40;99.90;;;;;;5111415;28;20445;-68
2021/12/19 00:51:41;;;;;;;22.63;9.17;;;3.40;99.90;;;;;;5111587;28;20087;-67
2021/12/19 00:54:10;;;;;;;20.27;8.90;;;3.50;99.90;;;;;;5111474;28;20056;-68
2021/12/19 00:56:39;;;;;;;20.77;8.53;;;3.50;99.90;;;;;;5110902;28;20044;-67
2021/12/19 00:59:06;;;;;;;22.57;9.33;;;3.50;99.90;;;;;;5111022;28;20080;-67
2021/12/19 01:01:34;;;;;;;21.43;8.90;;;3.40;99.90;;;;;;5110660;28;20051;-67
2021/12/19 01:04:02;;;;;;;23.90;9.33;;;3.40;99.90;;;;;;5111208;28;20089;-67
2021/12/19 01:06:29;;;;;;;22.47;9.80;;;3.50;99.90;;;;;;5109757;28;20602;-67
2021/12/19 01:08:57;;;;;;;21.37;8.60;;;3.50;99.90;;;;;;5110809;28;20055;-67
2021/12/19 01:11:25;;;;;;;20.87;9.10;;;3.50;99.90;;;;;;5110247;28;20056;-67
2021/12/19 01:13:52;;;;;;;19.90;8.13;;;3.60;99.90;;;;;;5110719;28;20055;-67
2021/12/19 01:16:22;;;;;;;24.47;10.30;;;3.60;99.90;;;;;;5110123;28;20460;-68
2021/12/19 01:18:50;;;;;;;19.67;8.43;;;3.50;99.90;;;;;;5111117;28;20108;-68
2021/12/19 01:21:18;;;;;;;24.60;9.43;;;3.60;99.90;;;;;;5110903;28;20398;-67
2021/12/19 01:23:45;;;;;;;24.03;9.40;;;3.60;99.90;;;;;;5111252;28;20111;-67
2021/12/19 01:26:13;;;;;;;24.40;9.37;;;3.50;99.90;;;;;;5109874;28;20104;-69
2021/12/19 01:28:42;;;;;;;23.13;9.60;;;3.60;99.90;;;;;;5110970;28;20101;-67
2021/12/19 01:31:09;;;;;;;23.53;9.97;;;3.60;99.90;;;;;;5110560;28;20044;-67
2021/12/19 01:33:36;;;;;;;22.20;10.70;;;3.50;99.90;;;;;;5110491;28;20051;-67
2021/12/19 01:36:04;;;;;;;22.53;9.70;;;3.60;99.90;;;;;;5109129;28;20051;-67
2021/12/19 01:38:31;;;;;;;21.23;8.70;;;3.60;99.90;;;;;;5109835;28;20059;-67
2021/12/19 01:40:58;;;;;;;21.50;8.43;;;3.50;99.90;;;;;;5110805;22;20049;-67
2021/12/19 01:43:25;;;;;;;18.00;7.97;;;3.50;99.90;;;;;;5089332;28;20083;-68
2021/12/19 01:45:54;;;;;;;21.97;9.37;;;3.50;99.90;;;;;;5087954;28;20300;-67
2021/12/19 01:48:23;;;;;;;17.60;8.30;;;3.50;99.90;;;;;;5089243;28;20105;-67
2021/12/19 01:50:51;;;;;;;20.23;8.10;;;3.60;99.90;;;;;;5089008;28;20106;-68
2021/12/19 01:53:19;;;;;;;20.70;7.73;;;3.60;99.90;;;;;;5089365;28;20098;-68
2021/12/19 01:55:47;;;;;;;20.13;8.97;;;3.60;99.90;;;;;;5088264;28;20048;-67
2021/12/19 01:58:16;;;;;;;17.80;8.30;;;3.50;99.90;;;;;;5089083;28;20048;-68
2021/12/19 02:00:46;;;;;;;21.63;9.33;;;3.60;99.90;;;;;;5089008;28;20051;-68
2021/12/19 02:03:15;;;;;;;18.47;8.27;;;3.60;99.90;;;;;;5089243;28;20044;-68
2021/12/19 02:05:42;;;;;;;20.27;8.67;;;3.60;99.90;;;;;;5088084;28;20063;-68
2021/12/19 02:08:10;;;;;;;20.77;9.27;;;3.50;99.90;;;;;;5089188;28;20048;-67
2021/12/19 02:10:38;;;;;;;22.83;9.70;;;3.50;99.90;;;;;;5088571;28;20515;-68
2021/12/19 02:13:07;;;;;;;19.77;8.40;;;3.50;99.90;;;;;;5092124;28;20102;-68
2021/12/19 02:15:36;;;;;;;21.33;9.33;;;3.60;99.90;;;;;;5091871;28;20052;-67
2021/12/19 02:18:07;;;;;;;21.20;9.17;;;3.50;99.90;;;;;;5092920;28;20067;-68
2021/12/19 02:20:37;;;;;;;22.17;9.20;;;3.50;99.90;;;;;;5092427;28;20048;-68
2021/12/19 02:23:05;;;;;;;20.37;8.77;;;3.50;99.90;;;;;;5092661;28;20081;-68
2021/12/19 02:25:32;;;;;;;19.67;9.00;;;3.50;99.90;;;;;;5091061;28;20105;-68
2021/12/19 02:28:00;;;;;;;22.77;9.90;;;3.50;99.90;;;;;;5092670;28;20044;-68
2021/12/19 02:30:27;;;;;;;24.40;10.13;;;3.50;99.90;;;;;;5092203;28;20392;-68
2021/12/19 02:32:54;;;;;;;23.80;9.57;;;3.60;99.90;;;;;;5092572;28;20114;-68
2021/12/19 02:35:25;;;;;;;24.20;9.87;;;3.60;99.90;;;;;;5091642;28;20051;-67
2021/12/19 02:38:35;;;;;;;22.50;9.70;;;3.60;99.90;;;;;;5092364;28;20052;-68
2021/12/19 02:49:25;;;;;;;25.60;11.30;;;3.50;99.90;;;;;;5092242;28;20105;-68
2021/12/19 02:51:53;;;;;;;24.17;10.17;;;3.50;99.90;;;;;;5091868;28;20094;-68
2021/12/19 02:54:22;;;;;;;23.33;9.63;;;3.50;99.90;;;;;;5091733;28;20109;-68
2021/12/19 02:56:50;;;;;;;23.33;10.10;;;3.50;99.90;;;;;;5091196;28;20048;-67
2021/12/19 02:59:17;;;;;;;21.60;9.43;;;3.50;99.90;;;;;;5092267;28;20059;-68
2021/12/19 03:01:45;;;;;;;25.00;10.97;;;3.50;99.90;;;;;;5091334;28;20052;-68
2021/12/19 03:04:13;;;;;;;24.13;11.10;;;3.50;99.90;;;;;;5091708;28;20087;-67
2021/12/19 03:06:46;;;;;;;26.97;11.67;;;3.60;99.90;;;;;;5090591;28;20098;-67
2021/12/19 03:09:16;;;;;;;25.07;10.97;;;3.60;99.90;;;;;;5091248;28;20427;-68
2021/12/19 03:20:01;;;;;;;25.00;11.10;;;3.50;99.90;;;;;;5091573;28;20101;-68
2021/12/19 03:22:28;;;;;;;25.00;10.67;;;3.60;99.90;;;;;;5091086;28;20500;-68
2021/12/19 03:24:55;;;;;;;27.13;11.23;;;3.60;99.90;;;;;;5090228;28;20492;-68
2021/12/19 03:27:23;;;;;;;24.00;10.63;;;3.60;99.90;;;;;;5091261;28;20048;-68
2021/12/19 03:29:50;;;;;;;27.97;11.50;;;3.60;99.90;;;;;;5091492;28;20059;-68
2021/12/19 03:32:17;;;;;;;23.43;11.10;;;3.60;99.90;;;;;;5090988;28;20113;-68
2021/12/19 03:34:44;;;;;;;24.13;10.37;;;3.60;99.90;;;;;;5090956;28;20096;-67
2021/12/19 03:37:11;;;;;;;23.70;10.13;;;3.60;99.90;;;;;;5090815;28;20102;-68
2021/12/19 03:39:55;;;;;;;26.57;11.10;;;3.60;99.90;;;;;;5091178;28;20088;-68
2021/12/19 03:42:26;;;;;;;25.03;11.67;;;3.60;99.90;;;;;;5090977;28;20052;-67
2021/12/19 03:44:53;;;;;;;25.10;10.90;;;3.60;99.90;;;;;;5090626;28;20101;-68
2021/12/19 03:47:20;;;;;;;26.27;11.13;;;3.60;99.90;;;;;;5090764;28;20157;-67
2021/12/19 03:49:47;;;;;;;27.83;12.07;;;3.60;99.90;;;;;;5091114;28;20048;-68
2021/12/19 03:52:14;;;;;;;25.90;11.10;;;3.60;99.90;;;;;;5090691;28;20044;-68
2021/12/19 03:54:42;;;;;;;24.00;10.97;;;3.70;99.90;;;;;;5090459;28;20083;-67
2021/12/19 03:57:09;;;;;;;25.90;11.10;;;3.60;99.90;;;;;;5090561;28;20083;-68
2021/12/19 03:59:37;;;;;;;23.90;10.97;;;3.60;99.90;;;;;;5091117;28;20470;-68
2021/12/19 04:02:05;;;;;;;23.47;10.90;;;3.70;99.90;;;;;;5078913;28;20044;-67
2021/12/19 04:04:36;;;;;;;26.13;10.93;;;3.70;99.90;;;;;;5088066;28;20059;-67
2021/12/19 04:07:04;;;;;;;25.90;10.97;;;3.70;99.90;;;;;;5088945;28;20052;-68
2021/12/19 04:09:31;;;;;;;23.23;10.27;;;3.70;99.90;;;;;;5090114;28;20106;-67
2021/12/19 04:11:58;;;;;;;23.03;10.47;;;3.60;99.90;;;;;;5089310;28;20531;-68
2021/12/19 04:14:25;;;;;;;24.00;10.77;;;3.70;99.90;;;;;;5097864;28;20581;-68
2021/12/19 04:16:53;;;;;;;25.33;10.63;;;3.70;99.90;;;;;;5089024;28;20044;-68
2021/12/19 04:19:20;;;;;;;22.20;11.40;;;3.70;99.90;;;;;;5089895;28;20087;-67
2021/12/19 04:21:48;;;;;;;23.00;11.63;;;3.80;99.90;;;;;;5089228;28;20059;-68
2021/12/19 04:24:15;;;;;;;25.23;11.13;;;3.70;99.90;;;;;;5097300;28;20059;-67
2021/12/19 04:26:42;;;;;;;25.17;10.30;;;3.70;99.90;;;;;;5089135;28;20048;-68
2021/12/19 04:29:10;;;;;;;20.83;10.43;;;3.70;99.90;;;;;;5089822;28;20083;-67
2021/12/19 04:31:37;;;;;;;22.13;10.80;;;3.70;99.90;;;;;;5089708;28;20052;-68
2021/12/19 04:34:05;;;;;;;25.10;10.67;;;3.70;99.90;;;;;;5089656;28;20051;-67
2021/12/19 04:36:37;;;;;;;22.67;10.43;;;3.70;99.90;;;;;;5088332;28;20047;-68
2021/12/19 04:39:29;;;;;;;23.90;10.80;;;3.80;99.90;;;;;;5090254;28;20048;-68
2021/12/19 04:53:20;;;;;;;20.47;9.63;;;3.80;99.90;;;;;;5089252;28;20090;-67
2021/12/19 04:56:20;;;;;;;20.97;9.43;;;3.70;99.90;;;;;;5088996;28;20117;-67
2021/12/19 04:59:13;;;;;;;18.87;8.67;;;3.80;99.90;;;;;;5089213;28;20122;-68
2021/12/19 05:02:07;;;;;;;19.07;9.67;;;3.80;99.90;;;;;;5088910;28;20500;-67
2021/12/19 05:15:36;;;;;;;20.60;9.33;;;3.90;99.90;;;;;;5088679;28;20399;-68
2021/12/19 05:18:07;;;;;;;15.77;8.07;;;3.90;99.90;;;;;;5088895;28;20055;-68
2021/12/19 05:20:36;;;;;;;22.20;9.10;;;3.90;99.90;;;;;;5088559;28;20054;-68
2021/12/19 05:23:11;;;;;;;21.50;9.80;;;4.00;99.90;;;;;;5089242;28;20067;-68
2021/12/19 05:25:38;;;;;;;19.33;9.30;;;3.90;99.90;;;;;;5088164;28;20105;-69
2021/12/19 05:28:05;;;;;;;17.17;8.47;;;4.00;99.90;;;;;;5088717;28;20044;-67
2021/12/19 05:30:32;;;;;;;18.97;8.67;;;4.00;99.90;;;;;;5088809;28;20044;-68
2021/12/19 05:33:01;;;;;;;15.93;7.78;;;4.00;99.90;;;;;;5088364;28;20044;-68
2021/12/19 05:35:30;;;;;;;18.07;8.50;;;4.00;99.90;;;;;;5087889;28;20507;-68
2021/12/19 05:46:12;;;;;;;16.80;7.87;;;4.00;99.90;;;;;;5088688;28;20051;-67
2021/12/19 05:48:39;;;;;;;16.30;7.77;;;4.10;99.90;;;;;;5092644;28;20047;-68
2021/12/19 05:51:06;;;;;;;15.67;8.10;;;4.10;99.90;;;;;;5092741;28;20561;-67
2021/12/19 05:53:33;;;;;;;18.90;8.30;;;4.10;99.90;;;;;;5092449;28;20101;-67
2021/12/19 05:56:03;;;;;;;15.60;7.87;;;4.00;99.90;;;;;;5091619;28;20488;-67
2021/12/19 05:58:30;;;;;;;18.73;8.63;;;4.10;99.90;;;;;;5092729;28;20059;-70
2021/12/19 06:00:57;;;;;;;17.38;8.07;;;4.10;99.90;;;;;;5092619;28;20109;-67
2021/12/19 06:03:24;;;;;;;16.13;8.13;;;4.10;99.90;;;;;;5084124;28;20105;-67
2021/12/19 06:05:51;;;;;;;13.90;7.53;;;4.10;99.90;;;;;;5091862;28;20052;-68
2021/12/19 06:08:18;;;;;;;14.70;7.57;;;4.10;99.90;;;;;;5091960;28;20464;-67
2021/12/19 06:10:45;;;;;;;16.30;7.53;;;4.10;99.90;;;;;;5092221;28;20512;-68
2021/12/19 06:13:13;;;;;;;16.13;7.45;;;4.10;99.90;;;;;;5092104;28;20483;-67
2021/12/19 06:15:41;;;;;;;18.40;8.00;;;4.10;99.90;;;;;;5091428;28;20048;-67
2021/12/19 06:18:08;;;;;;;16.50;7.90;;;4.10;99.90;;;;;;5091730;28;20580;-67
2021/12/19 06:20:35;;;;;;;15.00;7.03;;;4.10;99.90;;;;;;5092160;28;20099;-67
2021/12/19 06:23:02;;;;;;;14.00;7.23;;;4.10;99.90;;;;;;5091674;28;20047;-67
2021/12/19 06:25:29;;;;;;;15.97;7.27;;;4.10;99.90;;;;;;5091316;28;20105;-67
2021/12/19 06:27:56;;;;;;;15.97;7.70;;;4.10;99.90;;;;;;5091817;28;20048;-68
2021/12/19 06:30:25;;;;;;;15.57;7.67;;;4.10;99.90;;;;;;5092155;28;20091;-67
2021/12/19 06:32:51;;;;;;;13.80;7.27;;;4.10;99.90;;;;;;5091564;28;20454;-67
2021/12/19 06:35:19;;;;;;;15.27;7.47;;;4.10;99.90;;;;;;5091405;28;20113;-67
2021/12/19 06:37:47;;;;;;;15.20;7.33;;;4.10;99.90;;;;;;5092098;28;20052;-67
2021/12/19 06:40:17;;;;;;;15.23;6.90;;;4.10;99.90;;;;;;5092027;28;20511;-67
2021/12/19 06:42:44;;;;;;;14.23;6.30;;;4.10;99.90;;;;;;5091877;28;20099;-67
2021/12/19 06:45:12;;;;;;;13.63;6.70;;;4.10;99.90;;;;;;5090686;28;20524;-67
2021/12/19 06:47:41;;;;;;;14.27;6.67;;;4.10;99.90;;;;;;5091977;28;20076;-68
2021/12/19 06:50:09;;;;;;;12.00;6.20;;;4.10;99.90;;;;;;5091174;28;20495;-68
2021/12/19 06:52:37;;;;;;;12.40;6.80;;;4.20;99.90;;;;;;5091811;28;20048;-67
2021/12/19 06:55:05;;;;;;;12.10;5.90;;;4.20;99.90;;;;;;5090723;28;20508;-67
2021/12/19 06:57:32;;;;;;;12.37;6.13;;;4.20;99.90;;;;;;5090986;28;20048;-67
2021/12/19 06:59:59;;;;;;;10.87;5.60;;;4.20;99.90;;;;;;5090917;28;20113;-67
2021/12/19 07:02:26;;;;;;;11.63;5.83;;;4.20;99.90;;;;;;5091128;28;20079;-67
2021/12/19 07:04:55;;;;;;;13.07;6.23;;;4.20;99.90;;;;;;5090374;28;20412;-68
2021/12/19 07:07:22;;;;;;;11.67;5.47;;;4.20;99.90;;;;;;5091561;28;20377;-68
2021/12/19 07:09:49;;;;;;;10.93;5.30;;;4.20;99.90;;;;;;5091234;28;20091;-68
2021/12/19 07:12:17;;;;;;;10.47;5.63;;;4.20;99.90;;;;;;5091331;28;20090;-67
2021/12/19 07:14:44;;;;;;;10.30;5.23;;;4.20;99.90;;;;;;5090878;28;20206;-68
2021/12/19 07:17:11;;;;;;;14.10;5.63;;;4.20;99.90;;;;;;5090831;28;20161;-67
2021/12/19 07:19:38;;;;;;;13.03;6.07;;;4.20;99.90;;;;;;5091283;28;20044;-67
2021/12/19 07:22:07;;;;;;;13.50;6.67;;;4.20;99.90;;;;;;5090972;28;20109;-68
2021/12/19 07:24:34;;;;;;;12.87;5.80;;;4.20;99.90;;;;;;5090616;28;20102;-67
2021/12/19 07:27:01;;;;;;;10.93;5.53;;;4.20;99.90;;;;;;5090756;28;20048;-68
2021/12/19 07:29:28;;;;;;;11.32;5.78;;;4.20;99.90;;;;;;5090339;28;20048;-67
2021/12/19 07:31:55;;;;;;;12.03;5.80;;;4.20;99.90;;;;;;5090980;28;20629;-67
2021/12/19 07:34:29;;;;;;;11.87;6.07;;;4.20;99.90;;;;;;5090534;28;20488;-68
2021/12/19 07:36:56;;;;;;;11.53;6.03;;;4.20;99.90;;;;;;5090101;28;20056;-67
2021/12/19 07:39:37;;;;;;;10.03;5.97;;;4.30;99.90;;;;;;5090530;28;20052;-68
2021/12/19 07:42:13;;;;;;;11.95;6.00;;;4.30;99.90;;;;;;5188390;22;20137;-72
2021/12/19 07:44:40;;;;;;;13.10;6.10;;;4.30;99.90;;;;;;5095825;28;20048;-73
2021/12/19 07:47:07;;;;;;;11.93;6.40;;;4.30;99.90;;;;;;5095936;28;20048;-71
2021/12/19 07:49:35;;;;;;;14.07;6.60;;;4.30;99.90;;;;;;5096153;28;20105;-72
2021/12/19 07:52:02;;;;;;;12.93;6.90;;;4.30;99.90;;;;;;5096471;28;20101;-73
2021/12/19 07:54:35;;;;;;;14.05;7.00;;;4.30;99.90;;;;;;5094698;28;20055;-71
2021/12/19 07:57:02;;;;;;;15.98;6.78;;;4.30;99.90;;;;;;5095724;28;20083;-71
2021/12/19 07:59:29;;;;;;;12.20;6.80;;;4.30;99.90;;;;;;5096328;28;20060;-72
2021/12/19 08:01:57;;;;;;;15.67;7.20;;;4.30;99.90;;;;;;5096575;28;20055;-71
2021/12/19 08:04:24;;;;;;;16.40;7.00;;;4.30;99.90;;;;;;5096519;28;20048;-73
2021/12/19 08:06:51;;;;;;;12.47;6.87;;;4.30;99.90;;;;;;5095943;28;20079;-72
2021/12/19 08:09:25;;;;;;;14.23;7.75;;;4.30;99.90;;;;;;5095603;28;20818;-73
2021/12/19 08:11:56;;;;;;;15.00;7.53;;;4.40;99.90;;;;;;5096955;28;20488;-74
2021/12/19 08:14:23;;;;;;;17.10;8.15;;;4.40;99.90;;;;;;5095870;28;20047;-71
2021/12/19 08:16:50;;;;;;;15.40;7.70;;;4.40;99.90;;;;;;5095824;28;20044;-71
2021/12/19 08:19:17;;;;;;;14.52;7.63;;;4.40;99.90;;;;;;5096394;28;20105;-75
2021/12/19 08:21:44;;;;;;;15.63;8.30;;;4.40;99.90;;;;;;5095632;28;20454;-71
2021/12/19 08:24:12;;;;;;;16.02;8.52;;;4.40;99.90;;;;;;5095622;28;20102;-71
2021/12/19 08:26:42;;;;;;;17.57;9.37;;;4.40;99.90;;;;;;5094800;28;20274;-72
2021/12/19 08:29:11;;;;;;;18.02;8.57;;;4.40;99.90;;;;;;5096412;28;20050;-71
2021/12/19 08:31:39;;;;;;;17.13;9.10;;;4.50;99.90;;;;;;5095755;28;20486;-71
2021/12/19 08:34:06;;;;;;;17.35;8.25;;;4.50;99.90;;;;;;5095380;28;20109;-71
2021/12/19 08:36:33;;;;;;;17.65;8.65;;;4.50;99.90;;;;;;5094982;28;20113;-72
2021/12/19 08:39:00;;;;;;;17.58;9.18;;;4.50;99.90;;;;;;5096626;28;20047;-73
2021/12/19 08:41:27;;;;;;;17.65;9.55;;;4.50;99.90;;;;;;5095691;28;20048;-71
2021/12/19 08:43:54;;;;;;;17.70;9.32;;;4.60;99.90;;;;;;5095703;28;20491;-76
2021/12/19 08:46:23;;;;;;;18.20;9.37;;;4.50;99.90;;;;;;5093997;28;20412;-71
2021/12/19 08:48:50;;;;;;;18.15;9.43;;;4.40;99.90;;;;;;5094544;28;20055;-71
2021/12/19 08:51:17;;;;;;;19.95;9.50;;;4.50;99.90;;;;;;5094651;28;20103;-72
2021/12/19 08:53:44;;;;;;;20.42;10.23;;;4.50;99.90;;;;;;5094446;28;20113;-74
2021/12/19 08:56:11;;;;;;;20.67;10.00;;;4.50;99.90;;;;;;5094188;28;20101;-71
2021/12/19 08:58:38;;;;;;;19.13;10.65;;;4.50;99.90;;;;;;5095704;28;20514;-71
2021/12/19 09:01:05;;;;;;;19.73;10.00;;;4.50;99.90;;;;;;5094647;28;20128;-71
2021/12/19 09:03:34;;;;;;;20.27;10.43;;;4.60;99.90;;;;;;5094878;28;20347;-73
2021/12/19 09:06:02;;;;;;;18.92;9.57;;;4.50;99.90;;;;;;5094093;28;20101;-71
2021/12/19 09:08:29;;;;;;;21.63;10.23;;;4.60;99.90;;;;;;5095533;28;20067;-71
2021/12/19 09:10:57;;;;;;;19.25;10.07;;;4.60;99.90;;;;;;5095360;28;20108;-71
2021/12/19 09:13:24;;;;;;;20.92;10.82;;;4.60;99.90;;;;;;5096349;28;20097;-71
2021/12/19 09:15:52;;;;;;;18.92;10.15;;;4.50;99.90;;;;;;5093907;28;20093;-73
2021/12/19 09:18:19;;;;;;;21.23;10.88;;;4.50;99.90;;;;;;5095371;28;20040;-71
2021/12/19 09:20:48;;;;;;;18.50;9.77;;;4.50;99.90;;;;;;5094664;28;20048;-71
2021/12/19 09:23:16;;;;;;;15.77;8.00;;;4.60;99.90;;;;;;5095275;28;20052;-72
2021/12/19 09:25:43;;;;;;;13.05;6.72;;;4.60;99.90;;;;;;5093988;28;20078;-75
2021/12/19 09:28:10;;;;;;;15.00;7.88;;;4.50;99.90;;;;;;5094466;28;20040;-71
2021/12/19 09:30:37;;;;;;;16.08;6.07;;;4.50;99.90;;;;;;5094366;28;20101;-74
2021/12/19 09:33:05;;;;;;;12.20;6.17;;;4.40;99.90;;;;;;5095920;28;20483;-72
2021/12/19 09:35:34;;;;;;;13.13;6.40;;;4.40;99.90;;;;;;5095498;28;20097;-74
2021/12/19 09:38:03;;;;;;;14.43;6.97;;;4.40;99.90;;;;;;5096659;28;20048;-72
2021/12/19 09:40:34;;;;;;;14.07;7.47;;;4.50;99.90;;;;;;5096125;28;20040;-73
2021/12/19 09:43:04;;;;;;;12.97;6.80;;;4.50;99.90;;;;;;5096088;28;20527;-73
2021/12/19 09:45:33;;;;;;;13.15;6.88;;;4.50;99.90;;;;;;5095381;28;20054;-73
2021/12/19 09:48:00;;;;;;;14.43;7.10;;;4.60;99.90;;;;;;5096996;28;20048;-72
2021/12/19 09:50:28;;;;;;;17.50;7.95;;;4.60;99.90;;;;;;5096530;28;20052;-73
2021/12/19 09:52:55;;;;;;;14.40;6.87;;;4.60;99.90;;;;;;5096853;28;20059;-73
2021/12/19 09:55:24;;;;;;;15.18;6.63;;;4.60;99.90;;;;;;5095361;28;20048;-72
2021/12/19 09:57:53;;;;;;;12.27;6.65;;;4.60;99.90;;;;;;5096512;28;20067;-73
2021/12/19 10:00:21;;;;;;;11.48;6.10;;;4.70;99.90;;;;;;5096148;28;20079;-76
2021/12/19 10:02:49;;;;;;;13.25;7.40;;;4.80;99.90;;;;;;5095811;28;20051;-75
2021/12/19 10:05:20;;;;;;;12.95;6.80;;;4.70;99.90;;;;;;5095898;28;20049;-74
2021/12/19 10:07:49;;;;;;;14.52;6.80;;;4.70;99.90;;;;;;5096080;28;20181;-73
2021/12/19 10:10:24;;;;;;;13.93;6.38;;;4.60;99.90;;;;;;5096188;28;20044;-73
2021/12/19 10:12:57;;;;;;;12.50;6.20;;;4.70;99.90;;;;;;5096875;28;20115;-73
2021/12/19 10:15:30;;;;;;;11.27;5.68;;;4.70;99.90;;;;;;5095784;28;20106;-72
2021/12/19 10:18:04;;;;;;;15.18;6.10;;;4.70;99.90;;;;;;5096254;28;20118;-73
2021/12/19 10:20:42;;;;;;;13.23;5.90;;;4.70;99.90;;;;;;5095702;28;20105;-73
2021/12/19 10:23:14;;;;;;;14.23;6.30;;;4.80;99.90;;;;;;5096962;28;20480;-74
2021/12/19 10:25:43;;;;;;;13.65;6.03;;;4.80;99.90;;;;;;5094990;28;20051;-73
2021/12/19 10:28:12;;;;;;;11.88;5.90;;;4.90;99.90;;;;;;5095095;28;20438;-73
2021/12/19 10:30:43;;;;;;;13.63;6.05;;;4.80;99.90;;;;;;5095679;28;20055;-72
2021/12/19 10:33:12;;;;;;;12.68;5.70;;;4.80;99.90;;;;;;5098171;28;20083;-73
2021/12/19 10:35:43;;;;;;;13.18;6.68;;;4.80;99.90;;;;;;5098306;28;20568;-74
2021/12/19 10:38:16;;;;;;;13.70;7.13;;;4.90;99.90;;;;;;5098572;28;20044;-73
2021/12/19 10:40:46;;;;;;;14.85;7.05;;;4.90;99.90;;;;;;5100491;28;20552;-73
2021/12/19 10:43:17;;;;;;;11.43;5.57;;;4.90;99.90;;;;;;5098915;28;20077;-72
2021/12/19 10:45:47;;;;;;;14.95;6.63;;;4.90;99.90;;;;;;5097603;28;20086;-72
2021/12/19 10:48:37;;;;;;;13.07;6.40;;;5.00;99.90;;;;;;5099645;28;20048;-74
2021/12/19 10:51:07;;;;;;;13.88;6.80;;;5.00;99.90;;;;;;5098373;28;20101;-73
2021/12/19 10:53:37;;;;;;;14.80;6.70;;;4.90;99.90;;;;;;5098261;28;20043;-72
2021/12/19 10:56:09;;;;;;;15.52;7.15;;;5.00;99.90;;;;;;5096325;28;20101;-75
2021/12/19 10:58:42;;;;;;;13.70;7.50;;;5.00;99.90;;;;;;5100637;28;20454;-72
2021/12/19 11:01:17;;;;;;;13.40;6.40;;;5.00;99.90;;;;;;5099490;28;20048;-72
2021/12/19 11:04:06;;;;;;;16.13;7.65;;;5.00;99.90;;;;;;5099293;28;20562;-72
2021/12/19 11:06:37;;;;;;;13.80;6.90;;;5.00;99.90;;;;;;5089163;28;20102;-72
2021/12/19 11:09:13;;;;;;;17.77;7.47;;;5.00;99.90;;;;;;5098432;28;20040;-73
2021/12/19 11:11:48;;;;;;;14.05;6.88;;;5.10;99.90;;;;;;5096985;28;20526;-72
2021/12/19 11:14:19;;;;;;;14.52;6.88;;;5.10;99.90;;;;;;5098638;28;20052;-73
2021/12/19 11:16:47;;;;;;;14.57;7.10;;;5.10;99.90;;;;;;5098086;28;20507;-72
2021/12/19 11:19:15;;;;;;;18.08;7.60;;;5.10;99.90;;;;;;5098075;28;20047;-72
2021/12/19 11:21:42;;;;;;;17.17;7.50;;;5.20;99.90;;;;;;5096781;28;20109;-73
2021/12/19 11:24:11;;;;;;;17.05;7.60;;;5.20;99.90;;;;;;5097391;28;20056;-72
2021/12/19 11:26:41;;;;;;;15.18;7.45;;;5.20;99.90;;;;;;5097396;28;20122;-73
2021/12/19 11:29:09;;;;;;;14.57;7.38;;;5.20;99.90;;;;;;5096797;28;20052;-73
2021/12/19 11:31:39;;;;;;;15.02;7.47;;;5.30;99.90;;;;;;5096539;28;20048;-75
2021/12/19 11:34:23;;;;;;;14.98;7.28;;;5.30;99.90;;;;;;5097012;28;20066;-72
2021/12/19 11:36:56;;;;;;;15.20;6.97;;;5.30;99.90;;;;;;5095800;28;20109;-73
2021/12/19 11:39:28;;;;;;;17.85;7.72;;;5.30;99.90;;;;;;5088402;28;20492;-73
2021/12/19 11:42:10;;;;;;;15.95;7.80;;;5.30;99.90;;;;;;5096646;28;20111;-73
2021/12/19 11:44:46;;;;;;;18.98;9.10;;;5.30;99.90;;;;;;5096009;28;20056;-73
2021/12/19 11:47:39;;;;;;;16.70;8.55;;;5.40;99.90;;;;;;5096729;28;20116;-72
2021/12/19 11:50:18;;;;;;;14.88;6.78;;;5.40;99.90;;;;;;5096964;28;20513;-73
2021/12/19 11:52:45;;;;;;;18.90;8.65;;;5.30;99.90;;;;;;5097110;28;20052;-73
2021/12/19 11:55:22;;;;;;;17.63;7.85;;;5.30;99.90;;;;;;5096627;28;20056;-73
2021/12/19 11:58:15;;;;;;;16.40;7.70;;;5.40;99.90;;;;;;5096667;28;20074;-72
2021/12/19 12:00:47;;;;;;;17.05;7.10;;;5.40;99.90;;;;;;5097615;28;20580;-74
2021/12/19 12:03:25;;;;;;;18.95;9.00;;;5.40;99.90;;;;;;5079567;28;20048;-73
2021/12/19 12:06:13;;;;;;;18.52;9.15;;;5.40;99.90;;;;;;5096495;28;20075;-73
2021/12/19 12:09:01;;;;;;;20.15;8.82;;;5.50;99.90;;;;;;5096767;28;20054;-72
2021/12/19 12:11:28;;;;;;;17.98;8.23;;;5.40;99.90;;;;;;5095945;28;20044;-72
2021/12/19 12:13:55;;;;;;;19.42;8.82;;;5.50;99.90;;;;;;5096191;28;20052;-72
2021/12/19 12:16:39;;;;;;;19.77;8.40;;;5.50;99.90;;;;;;5094794;28;20105;-76
2021/12/19 12:19:08;;;;;;;17.52;8.45;;;5.50;99.90;;;;;;5096911;28;20058;-73
2021/12/19 12:21:42;;;;;;;19.20;8.63;;;5.50;99.90;;;;;;5095848;28;20068;-72
2021/12/19 12:24:16;;;;;;;16.85;8.48;;;5.50;99.90;;;;;;5096510;28;20056;-72
2021/12/19 12:26:56;;;;;;;18.77;8.32;;;5.60;99.90;;;;;;5093961;28;20048;-73
2021/12/19 12:29:23;;;;;;;18.98;8.82;;;5.60;99.90;;;;;;5095490;28;20392;-72
2021/12/19 12:31:52;;;;;;;17.23;8.18;;;5.60;99.90;;;;;;5094849;28;20056;-74
2021/12/19 12:34:21;;;;;;;18.25;8.82;;;5.60;99.90;;;;;;5096183;28;20044;-72
2021/12/19 12:36:49;;;;;;;18.17;8.50;;;5.60;99.90;;;;;;5095208;28;20054;-70
2021/12/19 12:39:20;;;;;;;17.58;8.40;;;5.70;99.90;;;;;;5095405;28;20055;-77
2021/12/19 12:42:00;;;;;;;17.45;7.65;;;5.70;99.90;;;;;;5096051;28;20048;-73
2021/12/19 12:44:27;;;;;;;17.98;8.43;;;5.70;99.90;;;;;;5096713;28;20051;-71
2021/12/19 12:46:56;;;;;;;17.35;8.07;;;5.70;99.90;;;;;;5096753;28;20044;-73
2021/12/19 12:49:25;;;;;;;16.98;8.55;;;5.70;99.90;;;;;;5097189;28;20492;-73
2021/12/19 12:52:02;;;;;;;16.63;8.55;;;5.60;99.90;;;;;;5097080;28;20048;-72
2021/12/19 12:54:34;;;;;;;22.67;9.25;;;5.60;99.90;;;;;;5096489;28;20079;-73
2021/12/19 12:57:03;;;;;;;19.45;8.93;;;5.60;99.90;;;;;;5095874;28;20347;-73
2021/12/19 12:59:33;;;;;;;19.80;9.23;;;5.60;99.90;;;;;;5095442;28;20060;-72
2021/12/19 13:02:09;;;;;;;19.38;9.07;;;5.60;99.90;;;;;;5095113;28;20059;-76
2021/12/19 13:04:39;;;;;;;20.98;9.63;;;5.70;99.90;;;;;;5093688;28;20056;-72
2021/12/19 13:07:08;;;;;;;19.77;8.90;;;5.70;99.90;;;;;;5093694;28;20109;-73
2021/12/19 13:09:37;;;;;;;21.33;9.93;;;5.70;99.90;;;;;;5094629;28;20083;-73
2021/12/19 13:12:10;;;;;;;18.55;9.30;;;5.70;99.90;;;;;;5094686;28;20048;-73
2021/12/19 13:14:39;;;;;;;21.92;9.52;;;5.70;99.90;;;;;;5097559;28;20123;-73
2021/12/19 13:17:08;;;;;;;17.63;8.55;;;5.70;99.90;;;;;;5095673;28;20059;-72
2021/12/19 13:19:48;;;;;;;20.52;10.18;;;5.70;99.90;;;;;;5096324;28;20072;-71
2021/12/19 13:22:18;;;;;;;18.50;8.50;;;5.70;99.90;;;;;;5095544;28;20040;-71
2021/12/19 13:24:46;;;;;;;20.02;9.85;;;5.70;99.90;;;;;;5092648;28;20114;-74
2021/12/19 13:27:16;;;;;;;25.42;10.27;;;5.70;99.90;;;;;;5092635;28;20048;-74
2021/12/19 13:29:56;;;;;;;19.42;9.40;;;5.80;99.90;;;;;;5094704;28;20052;-73
2021/12/19 13:32:27;;;;;;;23.85;10.60;;;5.80;99.90;;;;;;5098453;28;20067;-72
2021/12/19 13:34:57;;;;;;;20.77;9.52;;;5.70;99.90;;;;;;5094438;28;20154;-73
2021/12/19 13:37:25;;;;;;;24.23;10.55;;;5.80;99.90;;;;;;5094161;28;20044;-74
2021/12/19 13:42:50;;;;;;;21.88;10.00;;;5.80;99.90;;;;;;5115790;22;20094;-69
2021/12/19 13:45:32;;;;;;;20.67;9.52;;;5.80;99.90;;;;;;5110888;28;20051;-69
2021/12/19 13:48:01;;;;;;;21.10;10.00;;;5.80;99.90;;;;;;5110970;28;20047;-68
2021/12/19 13:50:33;;;;;;;23.38;10.43;;;5.70;99.90;;;;;;5110507;28;20495;-68
2021/12/19 13:53:00;;;;;;;23.02;10.65;;;5.70;99.90;;;;;;5110607;28;20453;-68